sensor_id;sensor_type;location;lat;lon;timestamp;pressure;altitude;pressure_sealevel;temperature;humidity
7888;BME280;3989;48.810;9.208;2022-10-24T00:01:16;98424.81;;;17.72;100.00
7888;BME280;3989;48.810;9.208;2022-10-24T00:03:44;98426.81;;;17.65;100.00
7888;BME280;3989;48.810;9.208;2022-10-24T00:06:12;98390.63;;;17.43;100.00
7888;BME280;3989;48.810;9.208;2022-10-24T00:08:42;98430.91;;;17.56;100.00
7888;BME280;3989;48.810;9.208;2022-10-24T00:11:10;98426.03;;;17.47;100.00
7888;BME280;3989;48.810;9.208;2022-10-24T00:13:37;98431.06;;;17.43;100.00
7888;BME280;3989;48.810;9.208;2022-10-24T00:16:04;98427.66;;;17.36;100.00
7888;BME280;3989;48.810;9.208;2022-10-24T00:18:31;98430.59;;;17.35;100.00
7888;BME280;3989;48.810;9.208;2022-10-24T00:20:57;98426.91;;;17.29;100.00
7888;BME280;3989;48.810;9.208;2022-10-24T00:23:24;98424.09;;;17.24;100.00
7888;BME280;3989;48.810;9.208;2022-10-24T00:25:52;98426.91;;;17.29;100.00
7888;BME280;3989;48.810;9.208;2022-10-24T00:28:18;98427.03;;;17.22;100.00
7888;BME280;3989;48.810;9.208;2022-10-24T00:30:49;98434.31;;;17.22;100.00
7888;BME280;3989;48.810;9.208;2022-10-24T00:33:16;98435.72;;;17.24;100.00
7888;BME280;3989;48.810;9.208;2022-10-24T00:35:43;98441.56;;;17.21;100.00
7888;BME280;3989;48.810;9.208;2022-10-24T00:38:09;98440.75;;;17.21;100.00
7888;BME280;3989;48.810;9.208;2022-10-24T00:40:36;98437.78;;;17.11;100.00
7888;BME280;3989;48.810;9.208;2022-10-24T00:43:08;98457.69;;;17.10;100.00
7888;BME280;3989;48.810;9.208;2022-10-24T00:45:39;98450.88;;;17.07;100.00
7888;BME280;3989;48.810;9.208;2022-10-24T00:48:13;98437.59;;;16.94;100.00
7888;BME280;3989;48.810;9.208;2022-10-24T00:50:40;98403.72;;;16.68;100.00
7888;BME280;3989;48.810;9.208;2022-10-24T00:53:07;98435.13;;;16.93;100.00
7888;BME280;3989;48.810;9.208;2022-10-24T00:55:34;98451.88;;;16.95;100.00
7888;BME280;3989;48.810;9.208;2022-10-24T00:58:01;98453.53;;;16.96;100.00
7888;BME280;3989;48.810;9.208;2022-10-24T01:00:32;98450.84;;;16.96;100.00
7888;BME280;3989;48.810;9.208;2022-10-24T01:03:00;98438.13;;;16.85;100.00
7888;BME280;3989;48.810;9.208;2022-10-24T01:05:30;98450.31;;;16.87;100.00
7888;BME280;3989;48.810;9.208;2022-10-24T01:08:04;98411.56;;;16.52;100.00
7888;BME280;3989;48.810;9.208;2022-10-24T01:10:38;98433.31;;;16.57;100.00
7888;BME280;3989;48.810;9.208;2022-10-24T01:13:13;98448.84;;;16.55;100.00
7888;BME280;3989;48.810;9.208;2022-10-24T01:15:46;98463.41;;;16.47;100.00
7888;BME280;3989;48.810;9.208;2022-10-24T01:18:19;98460.34;;;16.44;100.00
7888;BME280;3989;48.810;9.208;2022-10-24T01:21:06;98466.94;;;16.48;100.00
7888;BME280;3989;48.810;9.208;2022-10-24T01:26:44;98463.81;;;16.51;100.00
7888;BME280;3989;48.810;9.208;2022-10-24T01:29:19;98467.28;;;16.51;100.00
7888;BME280;3989;48.810;9.208;2022-10-24T01:31:53;98469.34;;;16.56;100.00
7888;BME280;3989;48.810;9.208;2022-10-24T01:34:24;98463.50;;;16.59;100.00
7888;BME280;3989;48.810;9.208;2022-10-24T01:36:56;98468.97;;;16.70;100.00
7888;BME280;3989;48.810;9.208;2022-10-24T01:39:28;98464.94;;;16.79;100.00
7888;BME280;3989;48.810;9.208;2022-10-24T01:41:58;98472.13;;;16.86;100.00
7888;BME280;3989;48.810;9.208;2022-10-24T01:44:30;98465.78;;;16.80;100.00
7888;BME280;3989;48.810;9.208;2022-10-24T01:47:02;98414.13;;;16.47;100.00
7888;BME280;3989;48.810;9.208;2022-10-24T01:49:33;98457.53;;;16.57;100.00
7888;BME280;3989;48.810;9.208;2022-10-24T01:52:03;98421.72;;;16.13;100.00
7888;BME280;3989;48.810;9.208;2022-10-24T01:54:32;98464.59;;;16.33;100.00
7888;BME280;3989;48.810;9.208;2022-10-24T01:57:01;98466.06;;;16.29;100.00
7888;BME280;3989;48.810;9.208;2022-10-24T01:59:43;98468.94;;;16.34;100.00
7888;BME280;3989;48.810;9.208;2022-10-24T02:02:15;98450.16;;;16.27;100.00
7888;BME280;3989;48.810;9.208;2022-10-24T02:04:46;98461.38;;;16.43;100.00
7888;BME280;3989;48.810;9.208;2022-10-24T02:07:15;98457.28;;;16.40;100.00
7888;BME280;3989;48.810;9.208;2022-10-24T02:09:46;98463.63;;;16.46;100.00
7888;BME280;3989;48.810;9.208;2022-10-24T02:12:16;98430.09;;;16.23;100.00
7888;BME280;3989;48.810;9.208;2022-10-24T02:14:46;98475.56;;;16.56;100.00
7888;BME280;3989;48.810;9.208;2022-10-24T02:17:15;98304.69;;;15.61;100.00
7888;BME280;3989;48.810;9.208;2022-10-24T02:19:43;98473.94;;;16.73;100.00
7888;BME280;3989;48.810;9.208;2022-10-24T02:22:18;98413.88;;;16.48;100.00
7888;BME280;3989;48.810;9.208;2022-10-24T02:24:50;98235.59;;;15.37;100.00
7888;BME280;3989;48.810;9.208;2022-10-24T02:27:21;98449.81;;;16.78;100.00
7888;BME280;3989;48.810;9.208;2022-10-24T02:29:54;98262.78;;;15.54;100.00
7888;BME280;3989;48.810;9.208;2022-10-24T02:32:27;98425.72;;;16.65;100.00
7888;BME280;3989;48.810;9.208;2022-10-24T02:34:57;98335.50;;;16.02;100.00
7888;BME280;3989;48.810;9.208;2022-10-24T02:37:26;98382.84;;;16.27;100.00
7888;BME280;3989;48.810;9.208;2022-10-24T02:39:55;98435.09;;;16.63;100.00
7888;BME280;3989;48.810;9.208;2022-10-24T02:42:23;98317.09;;;15.81;100.00
7888;BME280;3989;48.810;9.208;2022-10-24T02:44:53;98427.56;;;16.47;100.00
7888;BME280;3989;48.810;9.208;2022-10-24T02:47:21;98428.63;;;16.46;100.00
7888;BME280;3989;48.810;9.208;2022-10-24T02:49:52;98275.16;;;15.55;100.00
7888;BME280;3989;48.810;9.208;2022-10-24T02:52:20;98397.22;;;16.21;100.00
7888;BME280;3989;48.810;9.208;2022-10-24T02:54:47;98421.66;;;16.38;100.00
7888;BME280;3989;48.810;9.208;2022-10-24T02:57:14;98419.66;;;16.34;100.00
7888;BME280;3989;48.810;9.208;2022-10-24T02:59:41;98414.47;;;16.32;100.00
7888;BME280;3989;48.810;9.208;2022-10-24T03:02:07;98420.09;;;16.31;100.00
7888;BME280;3989;48.810;9.208;2022-10-24T03:04:34;98249.81;;;15.19;100.00
7888;BME280;3989;48.810;9.208;2022-10-24T03:07:02;98427.22;;;16.25;100.00
7888;BME280;3989;48.810;9.208;2022-10-24T03:09:28;98439.59;;;16.26;100.00
7888;BME280;3989;48.810;9.208;2022-10-24T03:11:55;98430.09;;;16.23;100.00
7888;BME280;3989;48.810;9.208;2022-10-24T03:14:21;98200.97;;;14.86;100.00
7888;BME280;3989;48.810;9.208;2022-10-24T03:16:48;98437.91;;;16.32;100.00
7888;BME280;3989;48.810;9.208;2022-10-24T03:19:15;98411.41;;;16.10;100.00
7888;BME280;3989;48.810;9.208;2022-10-24T03:21:41;98415.06;;;16.16;100.00
7888;BME280;3989;48.810;9.208;2022-10-24T03:24:09;98371.28;;;15.84;100.00
7888;BME280;3989;48.810;9.208;2022-10-24T03:26:36;98320.53;;;15.45;100.00
7888;BME280;3989;48.810;9.208;2022-10-24T03:29:03;98434.81;;;16.10;100.00
7888;BME280;3989;48.810;9.208;2022-10-24T03:31:30;98407.09;;;15.85;100.00
7888;BME280;3989;48.810;9.208;2022-10-24T03:33:57;98457.09;;;16.17;100.00
7888;BME280;3989;48.810;9.208;2022-10-24T03:36:23;98442.22;;;16.14;100.00
7888;BME280;3989;48.810;9.208;2022-10-24T03:38:50;98448.81;;;16.37;100.00
7888;BME280;3989;48.810;9.208;2022-10-24T03:41:18;98433.38;;;16.25;100.00
7888;BME280;3989;48.810;9.208;2022-10-24T03:43:44;98443.13;;;16.45;100.00
7888;BME280;3989;48.810;9.208;2022-10-24T03:46:11;98442.09;;;16.46;100.00
7888;BME280;3989;48.810;9.208;2022-10-24T03:48:37;98438.81;;;16.44;100.00
7888;BME280;3989;48.810;9.208;2022-10-24T03:51:04;98245.97;;;15.34;100.00
7888;BME280;3989;48.810;9.208;2022-10-24T03:53:31;98436.63;;;16.52;100.00
7888;BME280;3989;48.810;9.208;2022-10-24T03:55:57;98428.16;;;16.49;100.00
7888;BME280;3989;48.810;9.208;2022-10-24T03:58:26;98429.00;;;16.49;100.00
7888;BME280;3989;48.810;9.208;2022-10-24T04:00:54;98393.84;;;16.26;100.00
7888;BME280;3989;48.810;9.208;2022-10-24T04:03:22;98443.28;;;16.50;100.00
7888;BME280;3989;48.810;9.208;2022-10-24T04:05:49;98417.16;;;16.32;100.00
7888;BME280;3989;48.810;9.208;2022-10-24T04:08:16;98452.34;;;16.37;100.00
7888;BME280;3989;48.810;9.208;2022-10-24T04:10:42;98451.72;;;16.35;100.00
7888;BME280;3989;48.810;9.208;2022-10-24T04:13:09;98372.72;;;15.87;100.00
7888;BME280;3989;48.810;9.208;2022-10-24T04:15:37;98406.31;;;16.02;100.00
7888;BME280;3989;48.810;9.208;2022-10-24T04:18:04;98457.28;;;16.40;100.00
7888;BME280;3989;48.810;9.208;2022-10-24T04:20:32;98459.97;;;16.40;100.00
7888;BME280;3989;48.810;9.208;2022-10-24T04:22:59;98458.09;;;16.41;100.00
7888;BME280;3989;48.810;9.208;2022-10-24T04:25:25;98428.00;;;16.25;100.00
7888;BME280;3989;48.810;9.208;2022-10-24T04:27:52;98455.41;;;16.41;100.00
7888;BME280;3989;48.810;9.208;2022-10-24T04:30:18;98457.09;;;16.35;100.00
7888;BME280;3989;48.810;9.208;2022-10-24T04:32:46;98351.56;;;15.72;100.00
7888;BME280;3989;48.810;9.208;2022-10-24T04:35:13;98443.13;;;16.26;100.00
7888;BME280;3989;48.810;9.208;2022-10-24T04:37:39;98248.75;;;15.02;100.00
7888;BME280;3989;48.810;9.208;2022-10-24T04:40:18;98263.94;;;15.15;100.00
7888;BME280;3989;48.810;9.208;2022-10-24T04:42:46;98422.63;;;16.07;100.00
7888;BME280;3989;48.810;9.208;2022-10-24T04:45:13;98339.13;;;15.46;100.00
7888;BME280;3989;48.810;9.208;2022-10-24T04:47:40;98407.19;;;15.96;100.00
7888;BME280;3989;48.810;9.208;2022-10-24T04:50:08;98435.03;;;16.08;100.00
7888;BME280;3989;48.810;9.208;2022-10-24T04:52:35;98432.72;;;16.12;100.00
7888;BME280;3989;48.810;9.208;2022-10-24T04:55:02;98428.44;;;16.04;100.00
7888;BME280;3989;48.810;9.208;2022-10-24T04:57:28;98297.13;;;15.27;100.00
7888;BME280;3989;48.810;9.208;2022-10-24T04:59:55;98435.50;;;16.23;100.00
7888;BME280;3989;48.810;9.208;2022-10-24T05:02:21;98439.84;;;16.24;100.00
7888;BME280;3989;48.810;9.208;2022-10-24T05:04:48;98440.66;;;16.25;100.00
7888;BME280;3989;48.810;9.208;2022-10-24T05:07:16;98404.13;;;15.93;100.00
7888;BME280;3989;48.810;9.208;2022-10-24T05:09:44;98448.75;;;16.25;100.00
7888;BME280;3989;48.810;9.208;2022-10-24T05:12:12;98435.13;;;16.20;100.00
7888;BME280;3989;48.810;9.208;2022-10-24T05:14:39;98446.97;;;16.12;100.00
7888;BME280;3989;48.810;9.208;2022-10-24T05:17:05;98439.16;;;16.11;100.00
7888;BME280;3989;48.810;9.208;2022-10-24T05:19:32;98455.94;;;16.06;100.00
7888;BME280;3989;48.810;9.208;2022-10-24T05:21:58;98436.06;;;16.07;100.00
7888;BME280;3989;48.810;9.208;2022-10-24T05:24:26;98211.41;;;14.69;100.00
7888;BME280;3989;48.810;9.208;2022-10-24T05:26:56;98443.63;;;16.17;100.00
7888;BME280;3989;48.810;9.208;2022-10-24T05:29:26;98357.31;;;15.75;100.00
7888;BME280;3989;48.810;9.208;2022-10-24T05:31:53;98427.84;;;16.39;100.00
7888;BME280;3989;48.810;9.208;2022-10-24T05:34:19;98375.19;;;16.06;100.00
7888;BME280;3989;48.810;9.208;2022-10-24T05:36:48;98304.09;;;15.59;100.00
7888;BME280;3989;48.810;9.208;2022-10-24T05:39:18;98461.34;;;16.67;100.00
7888;BME280;3989;48.810;9.208;2022-10-24T05:41:46;98416.97;;;16.34;100.00
7888;BME280;3989;48.810;9.208;2022-10-24T05:44:13;98461.00;;;16.64;100.00
7888;BME280;3989;48.810;9.208;2022-10-24T05:46:40;98451.53;;;16.55;100.00
7888;BME280;3989;48.810;9.208;2022-10-24T05:49:07;98462.94;;;16.57;100.00
7888;BME280;3989;48.810;9.208;2022-10-24T05:51:34;98363.31;;;15.96;100.00
7888;BME280;3989;48.810;9.208;2022-10-24T05:54:00;98469.41;;;16.49;100.00
7888;BME280;3989;48.810;9.208;2022-10-24T05:56:27;98480.63;;;16.46;100.00
7888;BME280;3989;48.810;9.208;2022-10-24T05:58:56;98469.25;;;16.44;100.00
7888;BME280;3989;48.810;9.208;2022-10-24T06:01:23;98405.88;;;16.05;100.00
7888;BME280;3989;48.810;9.208;2022-10-24T06:03:50;98478.13;;;16.45;100.00
7888;BME280;3989;48.810;9.208;2022-10-24T06:06:16;98487.41;;;16.49;100.00
7888;BME280;3989;48.810;9.208;2022-10-24T06:08:43;98354.88;;;15.49;100.00
7888;BME280;3989;48.810;9.208;2022-10-24T06:11:10;98497.94;;;16.32;100.00
7888;BME280;3989;48.810;9.208;2022-10-24T06:13:37;98317.66;;;14.59;100.00
7888;BME280;3989;48.810;9.208;2022-10-24T06:16:06;98489.78;;;15.40;100.00
7888;BME280;3989;48.810;9.208;2022-10-24T06:18:34;98506.75;;;15.02;100.00
7888;BME280;3989;48.810;9.208;2022-10-24T06:21:02;98518.59;;;14.75;100.00
7888;BME280;3989;48.810;9.208;2022-10-24T06:23:29;98490.38;;;14.46;100.00
7888;BME280;3989;48.810;9.208;2022-10-24T06:25:56;98517.81;;;14.61;100.00
7888;BME280;3989;48.810;9.208;2022-10-24T06:28:23;98517.81;;;14.55;100.00
7888;BME280;3989;48.810;9.208;2022-10-24T06:30:50;98516.19;;;14.54;100.00
7888;BME280;3989;48.810;9.208;2022-10-24T06:33:20;98510.41;;;14.50;100.00
7888;BME280;3989;48.810;9.208;2022-10-24T06:35:46;98514.53;;;14.59;100.00
7888;BME280;3989;48.810;9.208;2022-10-24T06:38:13;98516.38;;;14.59;100.00
7888;BME280;3989;48.810;9.208;2022-10-24T06:40:40;98514.13;;;14.56;100.00
7888;BME280;3989;48.810;9.208;2022-10-24T06:43:07;98520.50;;;14.55;100.00
7888;BME280;3989;48.810;9.208;2022-10-24T06:45:33;98514.53;;;14.53;100.00
7888;BME280;3989;48.810;9.208;2022-10-24T06:48:00;98520.50;;;14.55;100.00
7888;BME280;3989;48.810;9.208;2022-10-24T06:50:28;98420.06;;;13.92;100.00
7888;BME280;3989;48.810;9.208;2022-10-24T06:52:55;98478.41;;;14.23;100.00
7888;BME280;3989;48.810;9.208;2022-10-24T06:55:21;98527.56;;;14.49;100.00
7888;BME280;3989;48.810;9.208;2022-10-24T06:57:52;98539.53;;;14.53;100.00
7888;BME280;3989;48.810;9.208;2022-10-24T07:00:18;98537.03;;;14.52;100.00
7888;BME280;3989;48.810;9.208;2022-10-24T07:02:45;98540.38;;;14.54;100.00
7888;BME280;3989;48.810;9.208;2022-10-24T07:05:11;98378.22;;;13.45;100.00
7888;BME280;3989;48.810;9.208;2022-10-24T07:07:41;98564.72;;;14.59;100.00
7888;BME280;3989;48.810;9.208;2022-10-24T07:10:09;98573.38;;;14.61;100.00
7888;BME280;3989;48.810;9.208;2022-10-24T07:12:37;98581.25;;;14.62;100.00
7888;BME280;3989;48.810;9.208;2022-10-24T07:15:10;98554.16;;;14.64;100.00
7888;BME280;3989;48.810;9.208;2022-10-24T07:17:38;98430.78;;;13.98;100.00
7888;BME280;3989;48.810;9.208;2022-10-24T07:20:08;98266.09;;;12.70;100.00
7888;BME280;3989;48.810;9.208;2022-10-24T07:22:36;98583.91;;;14.69;100.00
7888;BME280;3989;48.810;9.208;2022-10-24T07:25:06;98557.88;;;14.76;100.00
7888;BME280;3989;48.810;9.208;2022-10-24T07:27:33;98507.31;;;14.53;100.00
7888;BME280;3989;48.810;9.208;2022-10-24T07:29:59;98557.59;;;14.91;100.00
7888;BME280;3989;48.810;9.208;2022-10-24T07:32:26;98519.47;;;14.69;100.00
7888;BME280;3989;48.810;9.208;2022-10-24T07:34:52;98556.53;;;15.05;100.00
7888;BME280;3989;48.810;9.208;2022-10-24T07:37:19;98322.75;;;13.45;100.00
7888;BME280;3989;48.810;9.208;2022-10-24T07:39:45;98549.31;;;15.05;100.00
7888;BME280;3989;48.810;9.208;2022-10-24T07:42:14;98423.91;;;14.29;100.00
7888;BME280;3989;48.810;9.208;2022-10-24T07:44:40;98540.41;;;15.05;100.00
7888;BME280;3989;48.810;9.208;2022-10-24T07:47:07;98555.00;;;15.22;100.00
7888;BME280;3989;48.810;9.208;2022-10-24T07:49:34;98426.81;;;14.34;100.00
7888;BME280;3989;48.810;9.208;2022-10-24T07:52:01;98560.63;;;15.14;100.00
7888;BME280;3989;48.810;9.208;2022-10-24T07:54:28;98541.69;;;14.96;100.00
7888;BME280;3989;48.810;9.208;2022-10-24T07:56:54;98538.97;;;15.02;100.00
7888;BME280;3989;48.810;9.208;2022-10-24T07:59:22;98505.59;;;14.79;100.00
7888;BME280;3989;48.810;9.208;2022-10-24T08:01:49;98576.16;;;15.12;100.00
7888;BME280;3989;48.810;9.208;2022-10-24T08:04:15;98582.56;;;15.11;100.00
7888;BME280;3989;48.810;9.208;2022-10-24T08:06:42;98586.06;;;15.11;100.00
7888;BME280;3989;48.810;9.208;2022-10-24T08:09:09;98581.72;;;15.10;100.00
7888;BME280;3989;48.810;9.208;2022-10-24T08:11:35;98582.16;;;15.07;100.00
7888;BME280;3989;48.810;9.208;2022-10-24T08:14:02;98421.50;;;13.94;100.00
7888;BME280;3989;48.810;9.208;2022-10-24T08:16:30;98405.63;;;13.86;100.00
7888;BME280;3989;48.810;9.208;2022-10-24T08:18:57;98467.69;;;14.36;100.00
7888;BME280;3989;48.810;9.208;2022-10-24T08:21:24;98427.84;;;14.19;100.00
7888;BME280;3989;48.810;9.208;2022-10-24T08:23:53;98500.22;;;14.79;100.00
7888;BME280;3989;48.810;9.208;2022-10-24T08:26:22;98505.69;;;14.97;100.00
7888;BME280;3989;48.810;9.208;2022-10-24T08:28:50;98517.28;;;14.97;100.00
7888;BME280;3989;48.810;9.208;2022-10-24T08:31:19;98503.06;;;14.84;100.00
7888;BME280;3989;48.810;9.208;2022-10-24T08:33:50;98518.34;;;14.90;100.00
7888;BME280;3989;48.810;9.208;2022-10-24T08:36:20;98493.84;;;14.73;100.00
7888;BME280;3989;48.810;9.208;2022-10-24T08:38:47;98537.91;;;15.10;100.00
7888;BME280;3989;48.810;9.208;2022-10-24T08:41:24;98520.94;;;15.09;100.00
7888;BME280;3989;48.810;9.208;2022-10-24T08:43:51;98545.44;;;15.33;100.00
7888;BME280;3989;48.810;9.208;2022-10-24T08:46:33;98526.06;;;15.24;100.00
7888;BME280;3989;48.810;9.208;2022-10-24T08:49:08;98545.63;;;15.38;100.00
7888;BME280;3989;48.810;9.208;2022-10-24T08:51:41;98551.66;;;15.33;100.00
7888;BME280;3989;48.810;9.208;2022-10-24T08:54:10;98558.47;;;15.29;100.00
7888;BME280;3989;48.810;9.208;2022-10-24T08:56:38;98536.09;;;14.97;100.00
7888;BME280;3989;48.810;9.208;2022-10-24T08:59:05;98513.38;;;14.87;100.00
7888;BME280;3989;48.810;9.208;2022-10-24T09:01:39;98511.75;;;14.92;100.00
7888;BME280;3989;48.810;9.208;2022-10-24T09:04:12;98548.84;;;15.15;100.00
7888;BME280;3989;48.810;9.208;2022-10-24T09:06:39;98544.25;;;15.22;100.00
7888;BME280;3989;48.810;9.208;2022-10-24T09:09:14;98552.31;;;15.22;100.00
7888;BME280;3989;48.810;9.208;2022-10-24T09:11:47;98524.75;;;14.89;100.00
7888;BME280;3989;48.810;9.208;2022-10-24T09:14:16;98514.41;;;14.92;100.00
7888;BME280;3989;48.810;9.208;2022-10-24T09:16:45;98569.09;;;15.17;100.00
7888;BME280;3989;48.810;9.208;2022-10-24T09:19:18;98526.59;;;14.95;100.00
7888;BME280;3989;48.810;9.208;2022-10-24T09:21:46;98589.16;;;15.21;100.00
7888;BME280;3989;48.810;9.208;2022-10-24T09:24:23;98595.97;;;15.17;100.00
7888;BME280;3989;48.810;9.208;2022-10-24T09:26:52;98608.38;;;15.18;100.00
7888;BME280;3989;48.810;9.208;2022-10-24T09:29:19;98598.66;;;15.17;100.00
7888;BME280;3989;48.810;9.208;2022-10-24T09:31:45;98592.47;;;15.10;100.00
7888;BME280;3989;48.810;9.208;2022-10-24T09:34:16;98295.97;;;13.26;100.00
7888;BME280;3989;48.810;9.208;2022-10-24T09:36:43;98423.31;;;14.13;100.00
7888;BME280;3989;48.810;9.208;2022-10-24T09:39:23;98607.13;;;15.21;100.00
7888;BME280;3989;48.810;9.208;2022-10-24T09:41:50;98332.88;;;13.56;100.00
7888;BME280;3989;48.810;9.208;2022-10-24T09:44:30;98596.38;;;15.21;100.00
7888;BME280;3989;48.810;9.208;2022-10-24T09:46:57;98542.50;;;14.96;100.00
7888;BME280;3989;48.810;9.208;2022-10-24T09:49:32;98580.66;;;15.24;100.00
7888;BME280;3989;48.810;9.208;2022-10-24T09:52:03;98550.09;;;15.06;100.00
7888;BME280;3989;48.810;9.208;2022-10-24T09:54:31;98588.88;;;15.36;100.00
7888;BME280;3989;48.810;9.208;2022-10-24T09:57:03;98423.91;;;14.35;100.00
7888;BME280;3989;48.810;9.208;2022-10-24T09:59:34;98575.00;;;15.39;100.00
7888;BME280;3989;48.810;9.208;2022-10-24T10:02:19;98590.50;;;15.50;100.00
7888;BME280;3989;48.810;9.208;2022-10-24T10:05:09;98586.75;;;15.51;100.00
7888;BME280;3989;48.810;9.208;2022-10-24T10:07:37;98427.59;;;14.54;100.00
7888;BME280;3989;48.810;9.208;2022-10-24T10:10:06;98353.97;;;14.10;100.00
7888;BME280;3989;48.810;9.208;2022-10-24T10:12:55;98589.69;;;15.81;100.00
7888;BME280;3989;48.810;9.208;2022-10-24T10:15:25;98519.94;;;15.48;100.00
7888;BME280;3989;48.810;9.208;2022-10-24T10:17:56;98519.03;;;15.61;100.00
7888;BME280;3989;48.810;9.208;2022-10-24T10:20:27;98464.97;;;15.38;100.00
7888;BME280;3989;48.810;9.208;2022-10-24T10:23:15;98489.69;;;15.59;100.00
7888;BME280;3989;48.810;9.208;2022-10-24T10:25:41;98539.44;;;16.00;100.00
7888;BME280;3989;48.810;9.208;2022-10-24T10:28:18;98497.66;;;15.97;100.00
7888;BME280;3989;48.810;9.208;2022-10-24T10:30:48;98499.63;;;16.08;100.00
7888;BME280;3989;48.810;9.208;2022-10-24T10:33:18;98586.66;;;16.76;100.00
7888;BME280;3989;48.810;9.208;2022-10-24T10:35:53;98587.03;;;16.80;100.00
7888;BME280;3989;48.810;9.208;2022-10-24T10:38:38;98588.16;;;16.91;100.00
7888;BME280;3989;48.810;9.208;2022-10-24T10:41:11;98479.03;;;16.39;100.00
7888;BME280;3989;48.810;9.208;2022-10-24T10:43:46;98301.91;;;15.50;100.00
7888;BME280;3989;48.810;9.208;2022-10-24T10:46:24;98587.13;;;17.28;100.00
7888;BME280;3989;48.810;9.208;2022-10-24T10:49:02;98574.06;;;17.07;100.00
7888;BME280;3989;48.810;9.208;2022-10-24T10:51:40;98604.25;;;17.33;100.00
7888;BME280;3989;48.810;9.208;2022-10-24T10:54:18;98570.84;;;17.16;100.00
7888;BME280;3989;48.810;9.208;2022-10-24T10:56:53;98601.09;;;17.37;100.00
7888;BME280;3989;48.810;9.208;2022-10-24T10:59:38;98609.41;;;17.35;100.00
7888;BME280;3989;48.810;9.208;2022-10-24T11:02:20;98568.94;;;17.05;100.00
7888;BME280;3989;48.810;9.208;2022-10-24T11:04:57;98446.00;;;16.32;100.00
7888;BME280;3989;48.810;9.208;2022-10-24T11:07:33;98602.84;;;17.31;100.00
7888;BME280;3989;48.810;9.208;2022-10-24T11:10:04;98611.06;;;17.36;100.00
7888;BME280;3989;48.810;9.208;2022-10-24T11:12:35;98616.84;;;17.40;100.00
7888;BME280;3989;48.810;9.208;2022-10-24T11:15:07;98589.94;;;17.33;100.00
7888;BME280;3989;48.810;9.208;2022-10-24T11:17:38;98581.84;;;17.33;100.00
7888;BME280;3989;48.810;9.208;2022-10-24T11:20:15;98602.22;;;17.47;100.00
7888;BME280;3989;48.810;9.208;2022-10-24T11:22:48;98610.25;;;17.54;100.00
7888;BME280;3989;48.810;9.208;2022-10-24T11:25:20;98609.25;;;17.66;100.00
7888;BME280;3989;48.810;9.208;2022-10-24T11:27:53;98591.13;;;17.55;100.00
7888;BME280;3989;48.810;9.208;2022-10-24T11:30:34;98615.25;;;17.68;100.00
7888;BME280;3989;48.810;9.208;2022-10-24T11:33:03;98432.84;;;16.60;100.00
7888;BME280;3989;48.810;9.208;2022-10-24T11:35:36;98395.91;;;16.42;100.00
7888;BME280;3989;48.810;9.208;2022-10-24T11:38:12;98607.44;;;17.78;100.00
7888;BME280;3989;48.810;9.208;2022-10-24T11:40:42;98600.28;;;17.84;100.00
7888;BME280;3989;48.810;9.208;2022-10-24T11:43:17;98474.47;;;17.12;100.00
7888;BME280;3989;48.810;9.208;2022-10-24T11:45:50;98595.16;;;17.94;100.00
7888;BME280;3989;48.810;9.208;2022-10-24T11:48:23;98444.91;;;17.05;100.00
7888;BME280;3989;48.810;9.208;2022-10-24T11:50:56;98560.31;;;17.93;100.00
7888;BME280;3989;48.810;9.208;2022-10-24T11:53:45;98477.59;;;17.57;100.00
7888;BME280;3989;48.810;9.208;2022-10-24T11:56:16;98502.84;;;17.62;100.00
7888;BME280;3989;48.810;9.208;2022-10-24T11:58:53;98578.91;;;18.24;100.00
7888;BME280;3989;48.810;9.208;2022-10-24T12:01:43;98534.94;;;17.94;100.00
7888;BME280;3989;48.810;9.208;2022-10-24T12:04:26;98317.97;;;16.65;100.00
7888;BME280;3989;48.810;9.208;2022-10-24T12:10:09;98500.28;;;17.79;100.00
7888;BME280;3989;48.810;9.208;2022-10-24T12:12:56;98531.44;;;17.93;100.00
7888;BME280;3989;48.810;9.208;2022-10-24T12:15:40;98556.84;;;18.15;100.00
7888;BME280;3989;48.810;9.208;2022-10-24T12:18:19;98545.72;;;17.94;100.00
7888;BME280;3989;48.810;9.208;2022-10-24T12:20:50;98506.38;;;17.74;100.00
7888;BME280;3989;48.810;9.208;2022-10-24T12:23:20;98560.91;;;18.06;100.00
7888;BME280;3989;48.810;9.208;2022-10-24T12:26:00;98543.03;;;17.94;100.00
7888;BME280;3989;48.810;9.208;2022-10-24T12:28:27;98319.97;;;16.52;100.00
7888;BME280;3989;48.810;9.208;2022-10-24T12:31:11;98557.03;;;18.02;100.00
7888;BME280;3989;48.810;9.208;2022-10-24T12:33:44;98560.56;;;18.03;100.00
7888;BME280;3989;48.810;9.208;2022-10-24T12:36:11;98514.00;;;17.77;100.00
7888;BME280;3989;48.810;9.208;2022-10-24T12:39:04;98559.13;;;18.00;100.00
7888;BME280;3989;48.810;9.208;2022-10-24T12:41:42;98552.91;;;18.00;100.00
7888;BME280;3989;48.810;9.208;2022-10-24T12:44:37;98550.19;;;18.00;100.00
7888;BME280;3989;48.810;9.208;2022-10-24T12:47:29;98554.25;;;18.09;100.00
7888;BME280;3989;48.810;9.208;2022-10-24T12:49:57;98506.00;;;17.71;100.00
7888;BME280;3989;48.810;9.208;2022-10-24T12:52:57;98556.13;;;18.20;100.00
7888;BME280;3989;48.810;9.208;2022-10-24T12:55:29;98551.06;;;18.23;100.00
7888;BME280;3989;48.810;9.208;2022-10-24T12:57:58;98531.22;;;18.18;100.00
7888;BME280;3989;48.810;9.208;2022-10-24T13:00:26;98578.59;;;18.55;100.00
7888;BME280;3989;48.810;9.208;2022-10-24T13:03:04;98521.81;;;18.32;100.00
7888;BME280;3989;48.810;9.208;2022-10-24T13:05:49;98585.31;;;18.76;100.00
7888;BME280;3989;48.810;9.208;2022-10-24T13:08:29;98585.19;;;18.82;100.00
7888;BME280;3989;48.810;9.208;2022-10-24T13:11:08;98459.94;;;18.07;100.00
7888;BME280;3989;48.810;9.208;2022-10-24T13:13:56;98535.03;;;18.52;100.00
7888;BME280;3989;48.810;9.208;2022-10-24T13:16:34;98581.19;;;18.85;100.00
7888;BME280;3989;48.810;9.208;2022-10-24T13:19:08;98570.03;;;18.81;100.00
7888;BME280;3989;48.810;9.208;2022-10-24T13:21:44;98568.50;;;18.85;100.00
7888;BME280;3989;48.810;9.208;2022-10-24T13:24:25;98570.97;;;18.87;100.00
7888;BME280;3989;48.810;9.208;2022-10-24T13:27:25;98520.59;;;18.58;100.00
7888;BME280;3989;48.810;9.208;2022-10-24T13:30:17;98553.00;;;18.69;100.00
7888;BME280;3989;48.810;9.208;2022-10-24T13:32:47;98579.91;;;18.76;100.00
7888;BME280;3989;48.810;9.208;2022-10-24T13:35:19;98470.16;;;18.05;100.00